sensor_id;sensor_type;location;lat;lon;timestamp;pressure;altitude;pressure_sealevel;temperature;humidity
23419;BME280;11882;42.522;27.458;2022-09-09T00:01:58;101464.28;;;20.77;75.87
23419;BME280;11882;42.522;27.458;2022-09-09T00:04:28;101449.09;;;20.76;76.40
23419;BME280;11882;42.522;27.458;2022-09-09T00:07:01;101463.69;;;20.75;76.10
23419;BME280;11882;42.522;27.458;2022-09-09T00:09:34;101456.84;;;20.73;75.96
23419;BME280;11882;42.522;27.458;2022-09-09T00:12:10;101457.66;;;20.73;76.57
23419;BME280;11882;42.522;27.458;2022-09-09T00:14:45;101448.94;;;20.71;76.40
23419;BME280;11882;42.522;27.458;2022-09-09T00:17:22;101447.53;;;20.69;76.42
23419;BME280;11882;42.522;27.458;2022-09-09T00:19:56;101449.41;;;20.68;76.70
23419;BME280;11882;42.522;27.458;2022-09-09T00:22:30;101443.41;;;20.66;76.83
23419;BME280;11882;42.522;27.458;2022-09-09T00:25:03;101438.22;;;20.65;77.35
23419;BME280;11882;42.522;27.458;2022-09-09T00:27:40;101446.19;;;20.59;77.09
23419;BME280;11882;42.522;27.458;2022-09-09T00:30:15;101444.75;;;20.57;76.73
23419;BME280;11882;42.522;27.458;2022-09-09T00:32:45;101449.78;;;20.53;77.11
23419;BME280;11882;42.522;27.458;2022-09-09T00:35:16;101448.13;;;20.52;77.32
23419;BME280;11882;42.522;27.458;2022-09-09T00:37:47;101448.34;;;20.51;76.92
23419;BME280;11882;42.522;27.458;2022-09-09T00:40:23;101451.50;;;20.48;77.05
23419;BME280;11882;42.522;27.458;2022-09-09T00:42:59;101453.84;;;20.44;76.45
23419;BME280;11882;42.522;27.458;2022-09-09T00:45:47;101449.72;;;20.42;76.88
23419;BME280;11882;42.522;27.458;2022-09-09T00:48:20;101445.34;;;20.41;76.64
23419;BME280;11882;42.522;27.458;2022-09-09T00:50:53;101448.88;;;20.41;77.27
23419;BME280;11882;42.522;27.458;2022-09-09T00:53:31;101441.81;;;20.40;77.38
23419;BME280;11882;42.522;27.458;2022-09-09T00:56:10;101445.56;;;20.39;77.60
23419;BME280;11882;42.522;27.458;2022-09-09T00:58:40;101442.03;;;20.39;77.79
23419;BME280;11882;42.522;27.458;2022-09-09T01:01:11;101444.34;;;20.35;77.86
23419;BME280;11882;42.522;27.458;2022-09-09T01:03:42;101447.72;;;20.31;77.48
23419;BME280;11882;42.522;27.458;2022-09-09T01:06:16;101447.34;;;20.27;77.79
23419;BME280;11882;42.522;27.458;2022-09-09T01:11:37;101448.84;;;20.23;78.30
23419;BME280;11882;42.522;27.458;2022-09-09T01:14:20;101447.41;;;20.20;78.56
23419;BME280;11882;42.522;27.458;2022-09-09T01:16:54;101447.63;;;20.19;78.68
23419;BME280;11882;42.522;27.458;2022-09-09T01:19:31;101455.94;;;20.17;78.68
23419;BME280;11882;42.522;27.458;2022-09-09T01:22:14;101454.53;;;20.15;79.09
23419;BME280;11882;42.522;27.458;2022-09-09T01:25:05;101455.78;;;20.12;79.33
23419;BME280;11882;42.522;27.458;2022-09-09T01:27:36;101447.31;;;20.09;79.49
23419;BME280;11882;42.522;27.458;2022-09-09T01:30:05;101442.13;;;20.07;79.78
23419;BME280;11882;42.522;27.458;2022-09-09T01:32:41;101443.41;;;20.05;80.03
23419;BME280;11882;42.522;27.458;2022-09-09T01:35:11;101444.66;;;20.02;79.94
23419;BME280;11882;42.522;27.458;2022-09-09T01:37:39;101446.16;;;19.98;80.35
23419;BME280;11882;42.522;27.458;2022-09-09T01:40:07;101445.13;;;19.99;80.10
23419;BME280;11882;42.522;27.458;2022-09-09T01:42:36;101450.13;;;19.95;79.59
23419;BME280;11882;42.522;27.458;2022-09-09T01:45:04;101449.31;;;19.95;79.34
23419;BME280;11882;42.522;27.458;2022-09-09T01:47:31;101442.47;;;19.92;79.23
23419;BME280;11882;42.522;27.458;2022-09-09T01:49:59;101453.94;;;19.88;78.78
23419;BME280;11882;42.522;27.458;2022-09-09T01:52:26;101454.59;;;19.83;78.68
23419;BME280;11882;42.522;27.458;2022-09-09T01:54:53;101452.78;;;19.77;78.60
23419;BME280;11882;42.522;27.458;2022-09-09T01:57:24;101452.41;;;19.74;78.13
23419;BME280;11882;42.522;27.458;2022-09-09T02:00:02;101444.34;;;19.67;77.94
23419;BME280;11882;42.522;27.458;2022-09-09T02:02:36;101449.34;;;19.63;77.43
23419;BME280;11882;42.522;27.458;2022-09-09T02:05:12;101450.84;;;19.59;77.16
23419;BME280;11882;42.522;27.458;2022-09-09T02:07:43;101454.81;;;19.57;77.14
23419;BME280;11882;42.522;27.458;2022-09-09T02:10:16;101446.53;;;19.52;76.97
23419;BME280;11882;42.522;27.458;2022-09-09T02:12:49;101446.13;;;19.48;77.01
23419;BME280;11882;42.522;27.458;2022-09-09T02:15:23;101449.25;;;19.45;76.74
23419;BME280;11882;42.522;27.458;2022-09-09T02:17:57;101440.97;;;19.40;76.81
23419;BME280;11882;42.522;27.458;2022-09-09T02:20:25;101450.56;;;19.36;76.79
23419;BME280;11882;42.522;27.458;2022-09-09T02:22:53;101451.59;;;19.35;76.66
23419;BME280;11882;42.522;27.458;2022-09-09T02:25:23;101443.94;;;19.32;76.25
23419;BME280;11882;42.522;27.458;2022-09-09T02:27:51;101449.34;;;19.32;76.22
23419;BME280;11882;42.522;27.458;2022-09-09T02:30:20;101441.06;;;19.27;75.89
23419;BME280;11882;42.522;27.458;2022-09-09T02:32:48;101446.06;;;19.23;75.90
23419;BME280;11882;42.522;27.458;2022-09-09T02:35:19;101439.44;;;19.19;75.73
23419;BME280;11882;42.522;27.458;2022-09-09T02:37:48;101446.09;;;19.17;75.68
23419;BME280;11882;42.522;27.458;2022-09-09T02:40:18;101442.19;;;19.13;75.92
23419;BME280;11882;42.522;27.458;2022-09-09T02:42:47;101443.66;;;19.09;75.83
23419;BME280;11882;42.522;27.458;2022-09-09T02:45:20;101444.09;;;19.06;75.72
23419;BME280;11882;42.522;27.458;2022-09-09T02:47:55;101451.56;;;19.04;75.85
23419;BME280;11882;42.522;27.458;2022-09-09T02:50:31;101443.25;;;19.05;76.04
23419;BME280;11882;42.522;27.458;2022-09-09T02:53:06;101445.53;;;19.08;76.16
23419;BME280;11882;42.522;27.458;2022-09-09T02:55:38;101448.00;;;19.10;76.04
23419;BME280;11882;42.522;27.458;2022-09-09T02:58:09;101439.31;;;19.08;76.29
23419;BME280;11882;42.522;27.458;2022-09-09T03:00:40;101445.31;;;19.10;76.34
23419;BME280;11882;42.522;27.458;2022-09-09T03:03:07;101453.81;;;19.13;76.88
23419;BME280;11882;42.522;27.458;2022-09-09T03:05:35;101450.28;;;19.13;76.60
23419;BME280;11882;42.522;27.458;2022-09-09T03:08:03;101445.50;;;19.15;77.08
23419;BME280;11882;42.522;27.458;2022-09-09T03:10:31;101450.88;;;19.15;76.83
23419;BME280;11882;42.522;27.458;2022-09-09T03:12:58;101447.16;;;19.16;76.49
23419;BME280;11882;42.522;27.458;2022-09-09T03:15:25;101446.09;;;19.17;76.58
23419;BME280;11882;42.522;27.458;2022-09-09T03:17:56;101439.88;;;19.16;76.62
23419;BME280;11882;42.522;27.458;2022-09-09T03:20:23;101448.41;;;19.13;76.91
23419;BME280;11882;42.522;27.458;2022-09-09T03:22:51;101455.88;;;19.11;76.78
23419;BME280;11882;42.522;27.458;2022-09-09T03:25:18;101452.78;;;19.08;77.19
23419;BME280;11882;42.522;27.458;2022-09-09T03:27:45;101452.41;;;19.04;76.88
23419;BME280;11882;42.522;27.458;2022-09-09T03:30:12;101455.53;;;19.01;77.40
23419;BME280;11882;42.522;27.458;2022-09-09T03:32:39;101450.56;;;18.98;77.68
23419;BME280;11882;42.522;27.458;2022-09-09T03:35:08;101458.91;;;18.90;78.11
23419;BME280;11882;42.522;27.458;2022-09-09T03:37:36;101466.63;;;18.80;78.20
23419;BME280;11882;42.522;27.458;2022-09-09T03:40:05;101463.13;;;18.73;78.08
23419;BME280;11882;42.522;27.458;2022-09-09T03:42:32;101458.38;;;18.68;78.58
23419;BME280;11882;42.522;27.458;2022-09-09T03:44:59;101452.78;;;18.63;78.83
23419;BME280;11882;42.522;27.458;2022-09-09T03:47:26;101459.59;;;18.59;79.22
23419;BME280;11882;42.522;27.458;2022-09-09T03:49:53;101458.38;;;18.55;79.54
23419;BME280;11882;42.522;27.458;2022-09-09T03:52:21;101461.28;;;18.53;79.60
23419;BME280;11882;42.522;27.458;2022-09-09T03:54:50;101460.88;;;18.50;79.59
23419;BME280;11882;42.522;27.458;2022-09-09T03:57:18;101464.59;;;18.49;79.47
23419;BME280;11882;42.522;27.458;2022-09-09T03:59:45;101461.50;;;18.45;79.34
23419;BME280;11882;42.522;27.458;2022-09-09T04:02:12;101459.84;;;18.44;79.15
23419;BME280;11882;42.522;27.458;2022-09-09T04:04:39;101450.53;;;18.40;79.12
23419;BME280;11882;42.522;27.458;2022-09-09T04:07:06;101454.88;;;18.41;79.07
23419;BME280;11882;42.522;27.458;2022-09-09T04:09:34;101455.09;;;18.40;79.21
23419;BME280;11882;42.522;27.458;2022-09-09T04:12:02;101460.28;;;18.41;79.37
23419;BME280;11882;42.522;27.458;2022-09-09T04:14:28;101455.50;;;18.43;79.60
23419;BME280;11882;42.522;27.458;2022-09-09T04:16:55;101455.50;;;18.43;79.93
23419;BME280;11882;42.522;27.458;2022-09-09T04:19:22;101459.66;;;18.46;80.02
23419;BME280;11882;42.522;27.458;2022-09-09T04:21:50;101458.41;;;18.48;80.31
23419;BME280;11882;42.522;27.458;2022-09-09T04:24:17;101465.22;;;18.51;80.20
23419;BME280;11882;42.522;27.458;2022-09-09T04:26:45;101462.09;;;18.54;80.59
23419;BME280;11882;42.522;27.458;2022-09-09T04:29:12;101471.63;;;18.56;80.63
23419;BME280;11882;42.522;27.458;2022-09-09T04:31:39;101474.13;;;18.58;80.86
23419;BME280;11882;42.522;27.458;2022-09-09T04:34:08;101473.31;;;18.64;80.27
23419;BME280;11882;42.522;27.458;2022-09-09T04:36:35;101475.13;;;18.77;80.24
23419;BME280;11882;42.522;27.458;2022-09-09T04:39:02;101471.13;;;18.92;79.71
23419;BME280;11882;42.522;27.458;2022-09-09T04:41:29;101469.16;;;19.13;78.50
23419;BME280;11882;42.522;27.458;2022-09-09T04:43:58;101473.81;;;19.37;77.50
23419;BME280;11882;42.522;27.458;2022-09-09T04:46:26;101476.78;;;19.60;76.50
23419;BME280;11882;42.522;27.458;2022-09-09T04:48:53;101467.88;;;19.85;75.13
23419;BME280;11882;42.522;27.458;2022-09-09T04:51:20;101482.81;;;20.12;74.25
23419;BME280;11882;42.522;27.458;2022-09-09T04:53:47;101484.19;;;20.46;72.78
23419;BME280;11882;42.522;27.458;2022-09-09T04:56:17;101469.09;;;20.94;71.81
23419;BME280;11882;42.522;27.458;2022-09-09T04:58:44;101482.16;;;21.45;70.16
23419;BME280;11882;42.522;27.458;2022-09-09T05:01:16;101480.16;;;21.94;67.92
23419;BME280;11882;42.522;27.458;2022-09-09T05:03:43;101475.00;;;22.39;66.21
23419;BME280;11882;42.522;27.458;2022-09-09T05:06:13;101479.56;;;22.73;64.97
23419;BME280;11882;42.522;27.458;2022-09-09T05:08:42;101474.16;;;23.13;64.21
23419;BME280;11882;42.522;27.458;2022-09-09T05:11:16;101474.72;;;23.44;62.10
23419;BME280;11882;42.522;27.458;2022-09-09T05:13:44;101470.50;;;23.82;62.05
23419;BME280;11882;42.522;27.458;2022-09-09T05:16:13;101475.25;;;24.25;60.96
23419;BME280;11882;42.522;27.458;2022-09-09T05:18:40;101476.66;;;24.66;59.61
23419;BME280;11882;42.522;27.458;2022-09-09T05:21:08;101469.47;;;24.98;58.39
23419;BME280;11882;42.522;27.458;2022-09-09T05:23:36;101464.34;;;25.29;57.55
23419;BME280;11882;42.522;27.458;2022-09-09T05:26:04;101461.03;;;25.54;56.50
23419;BME280;11882;42.522;27.458;2022-09-09T05:28:33;101458.25;;;25.76;55.61
23419;BME280;11882;42.522;27.458;2022-09-09T05:31:02;101459.69;;;25.83;54.30
23419;BME280;11882;42.522;27.458;2022-09-09T05:33:32;101450.41;;;25.84;53.39
23419;BME280;11882;42.522;27.458;2022-09-09T05:36:00;101453.41;;;25.83;53.47
23419;BME280;11882;42.522;27.458;2022-09-09T05:38:28;101445.44;;;25.76;53.42
23419;BME280;11882;42.522;27.458;2022-09-09T05:40:56;101454.47;;;25.82;53.50
23419;BME280;11882;42.522;27.458;2022-09-09T05:43:23;101453.69;;;25.86;53.60
23419;BME280;11882;42.522;27.458;2022-09-09T05:45:59;101460.31;;;25.95;52.95
23419;BME280;11882;42.522;27.458;2022-09-09T05:48:28;101463.56;;;25.92;52.94
23419;BME280;11882;42.522;27.458;2022-09-09T05:50:58;101482.69;;;25.97;52.67
23419;BME280;11882;42.522;27.458;2022-09-09T05:53:25;101477.25;;;25.97;52.65
23419;BME280;11882;42.522;27.458;2022-09-09T05:55:59;101475.47;;;26.13;53.04
23419;BME280;11882;42.522;27.458;2022-09-09T05:58:27;101476.13;;;26.30;52.21
23419;BME280;11882;42.522;27.458;2022-09-09T06:01:00;101475.31;;;26.30;51.70
23419;BME280;11882;42.522;27.458;2022-09-09T06:03:27;101463.28;;;26.26;52.29
23419;BME280;11882;42.522;27.458;2022-09-09T06:06:00;101472.00;;;26.28;52.32
23419;BME280;11882;42.522;27.458;2022-09-09T06:08:27;101475.81;;;26.27;52.96
23419;BME280;11882;42.522;27.458;2022-09-09T06:11:01;101476.50;;;26.44;52.98
23419;BME280;11882;42.522;27.458;2022-09-09T06:13:29;101474.44;;;26.67;52.75
23419;BME280;11882;42.522;27.458;2022-09-09T06:15:56;101470.97;;;26.86;51.98
23419;BME280;11882;42.522;27.458;2022-09-09T06:18:23;101472.41;;;26.99;51.65
23419;BME280;11882;42.522;27.458;2022-09-09T06:20:55;101480.91;;;27.08;50.79
23419;BME280;11882;42.522;27.458;2022-09-09T06:23:24;101481.88;;;26.81;51.41
23419;BME280;11882;42.522;27.458;2022-09-09T06:25:52;101479.44;;;26.85;51.41
23419;BME280;11882;42.522;27.458;2022-09-09T06:28:26;101477.81;;;26.94;51.36
23419;BME280;11882;42.522;27.458;2022-09-09T06:30:57;101473.69;;;26.86;51.52
23419;BME280;11882;42.522;27.458;2022-09-09T06:33:24;101481.31;;;26.79;51.86
23419;BME280;11882;42.522;27.458;2022-09-09T06:35:52;101483.06;;;27.01;52.02
23419;BME280;11882;42.522;27.458;2022-09-09T06:38:19;101489.38;;;27.16;50.97
23419;BME280;11882;42.522;27.458;2022-09-09T06:40:52;101496.75;;;27.11;51.44
23419;BME280;11882;42.522;27.458;2022-09-09T06:43:20;101505.44;;;26.98;51.51
23419;BME280;11882;42.522;27.458;2022-09-09T06:45:53;101501.91;;;27.02;52.45
23419;BME280;11882;42.522;27.458;2022-09-09T06:48:20;101491.25;;;27.01;52.09
23419;BME280;11882;42.522;27.458;2022-09-09T06:50:47;101495.28;;;26.88;51.83
23419;BME280;11882;42.522;27.458;2022-09-09T06:53:16;101491.13;;;26.75;52.53
23419;BME280;11882;42.522;27.458;2022-09-09T06:55:45;101496.72;;;27.01;51.87
23419;BME280;11882;42.522;27.458;2022-09-09T06:58:13;101500.06;;;27.18;50.45
23419;BME280;11882;42.522;27.458;2022-09-09T07:00:40;101501.47;;;27.36;50.49
23419;BME280;11882;42.522;27.458;2022-09-09T07:03:09;101506.41;;;27.59;50.06
23419;BME280;11882;42.522;27.458;2022-09-09T07:05:36;101500.97;;;27.64;49.17
23419;BME280;11882;42.522;27.458;2022-09-09T07:08:04;101505.38;;;27.75;49.13
23419;BME280;11882;42.522;27.458;2022-09-09T07:10:31;101506.47;;;27.79;48.57
23419;BME280;11882;42.522;27.458;2022-09-09T07:12:59;101505.91;;;27.82;49.12
23419;BME280;11882;42.522;27.458;2022-09-09T07:15:29;101501.81;;;27.95;47.81
23419;BME280;11882;42.522;27.458;2022-09-09T07:18:00;101500.44;;;27.77;47.78
23419;BME280;11882;42.522;27.458;2022-09-09T07:20:28;101507.00;;;27.81;47.87
23419;BME280;11882;42.522;27.458;2022-09-09T07:22:55;101506.47;;;27.95;47.79
23419;BME280;11882;42.522;27.458;2022-09-09T07:25:22;101506.47;;;28.00;47.42
23419;BME280;11882;42.522;27.458;2022-09-09T07:27:49;101499.63;;;28.07;47.72
23419;BME280;11882;42.522;27.458;2022-09-09T07:30:16;101497.69;;;28.13;46.71
23419;BME280;11882;42.522;27.458;2022-09-09T07:32:46;101503.16;;;28.13;47.32
23419;BME280;11882;42.522;27.458;2022-09-09T07:35:13;101503.16;;;28.18;45.67
23419;BME280;11882;42.522;27.458;2022-09-09T07:37:40;101495.53;;;27.89;46.10
23419;BME280;11882;42.522;27.458;2022-09-09T07:40:07;101490.31;;;27.68;46.59
23419;BME280;11882;42.522;27.458;2022-09-09T07:42:35;101488.97;;;27.75;46.88
23419;BME280;11882;42.522;27.458;2022-09-09T07:45:03;101490.88;;;27.90;46.70
23419;BME280;11882;42.522;27.458;2022-09-09T07:47:31;101480.44;;;28.17;46.42
23419;BME280;11882;42.522;27.458;2022-09-09T07:49:59;101485.66;;;28.29;46.30
23419;BME280;11882;42.522;27.458;2022-09-09T07:52:27;101488.41;;;27.99;46.78
23419;BME280;11882;42.522;27.458;2022-09-09T07:54:54;101491.41;;;28.02;48.01
23419;BME280;11882;42.522;27.458;2022-09-09T07:57:21;101478.00;;;28.26;47.81
23419;BME280;11882;42.522;27.458;2022-09-09T07:59:48;101479.00;;;28.50;47.25
23419;BME280;11882;42.522;27.458;2022-09-09T08:02:16;101477.72;;;28.28;46.98
23419;BME280;11882;42.522;27.458;2022-09-09T08:04:43;101488.34;;;28.44;47.21
23419;BME280;11882;42.522;27.458;2022-09-09T08:07:11;101474.84;;;28.68;45.58
23419;BME280;11882;42.522;27.458;2022-09-09T08:09:38;101481.13;;;28.74;43.92
23419;BME280;11882;42.522;27.458;2022-09-09T08:12:06;101474.06;;;28.52;38.20
23419;BME280;11882;42.522;27.458;2022-09-09T08:14:33;101471.66;;;28.41;38.55
23419;BME280;11882;42.522;27.458;2022-09-09T08:17:00;101464.25;;;28.46;37.77
23419;BME280;11882;42.522;27.458;2022-09-09T08:19:27;101466.63;;;28.68;39.48
23419;BME280;11882;42.522;27.458;2022-09-09T08:21:55;101453.13;;;28.92;41.13
23419;BME280;11882;42.522;27.458;2022-09-09T08:24:24;101449.13;;;29.18;41.39
23419;BME280;11882;42.522;27.458;2022-09-09T08:26:51;101440.75;;;29.44;42.47
23419;BME280;11882;42.522;27.458;2022-09-09T08:29:19;101441.34;;;29.70;42.49
23419;BME280;11882;42.522;27.458;2022-09-09T08:31:47;101441.75;;;29.87;41.86
23419;BME280;11882;42.522;27.458;2022-09-09T08:34:14;101438.59;;;30.04;44.97
23419;BME280;11882;42.522;27.458;2022-09-09T08:36:44;101434.75;;;30.00;46.45
23419;BME280;11882;42.522;27.458;2022-09-09T08:39:12;101446.13;;;29.88;47.63
23419;BME280;11882;42.522;27.458;2022-09-09T08:41:52;101441.59;;;29.73;48.84
23419;BME280;11882;42.522;27.458;2022-09-09T08:44:32;101442.78;;;29.62;48.56
23419;BME280;11882;42.522;27.458;2022-09-09T08:47:08;101440.25;;;29.71;49.00
23419;BME280;11882;42.522;27.458;2022-09-09T08:49:57;101440.88;;;29.63;48.24
23419;BME280;11882;42.522;27.458;2022-09-09T08:52:30;101439.13;;;29.38;48.89
23419;BME280;11882;42.522;27.458;2022-09-09T08:55:05;101432.53;;;29.39;47.27
23419;BME280;11882;42.522;27.458;2022-09-09T08:57:39;101433.09;;;29.36;48.50
23419;BME280;11882;42.522;27.458;2022-09-09T09:00:10;101425.19;;;29.29;48.56
23419;BME280;11882;42.522;27.458;2022-09-09T09:02:43;101434.72;;;29.37;47.29
23419;BME280;11882;42.522;27.458;2022-09-09T09:05:19;101433.63;;;29.43;47.24
23419;BME280;11882;42.522;27.458;2022-09-09T09:08:00;101424.53;;;29.47;47.21
23419;BME280;11882;42.522;27.458;2022-09-09T09:10:37;101429.22;;;29.42;47.83
23419;BME280;11882;42.522;27.458;2022-09-09T09:13:14;101428.72;;;29.35;49.15
23419;BME280;11882;42.522;27.458;2022-09-09T09:15:42;101430.09;;;29.32;49.90
23419;BME280;11882;42.522;27.458;2022-09-09T09:18:12;101430.16;;;29.27;49.96
23419;BME280;11882;42.522;27.458;2022-09-09T09:20:45;101415.88;;;29.30;51.10
23419;BME280;11882;42.522;27.458;2022-09-09T09:23:18;101422.97;;;29.31;52.16
23419;BME280;11882;42.522;27.458;2022-09-09T09:25:47;101421.13;;;29.22;53.09
23419;BME280;11882;42.522;27.458;2022-09-09T09:28:18;101426.28;;;29.28;53.20
23419;BME280;11882;42.522;27.458;2022-09-09T09:30:52;101425.44;;;29.33;53.62
23419;BME280;11882;42.522;27.458;2022-09-09T09:33:24;101424.91;;;29.31;53.71
23419;BME280;11882;42.522;27.458;2022-09-09T09:35:52;101424.47;;;29.13;54.71
23419;BME280;11882;42.522;27.458;2022-09-09T09:38:22;101419.38;;;28.97;55.16
23419;BME280;11882;42.522;27.458;2022-09-09T09:40:51;101430.16;;;28.83;56.00
23419;BME280;11882;42.522;27.458;2022-09-09T09:43:24;101415.38;;;28.74;55.95
23419;BME280;11882;42.522;27.458;2022-09-09T09:45:51;101409.09;;;28.68;56.95
23419;BME280;11882;42.522;27.458;2022-09-09T09:48:18;101413.22;;;28.66;57.35
23419;BME280;11882;42.522;27.458;2022-09-09T09:50:50;101410.78;;;28.59;57.53
23419;BME280;11882;42.522;27.458;2022-09-09T09:53:22;101406.47;;;28.43;58.49
23419;BME280;11882;42.522;27.458;2022-09-09T09:55:56;101400.19;;;28.37;59.89
23419;BME280;11882;42.522;27.458;2022-09-09T09:58:27;101398.56;;;28.36;59.87
23419;BME280;11882;42.522;27.458;2022-09-09T10:00:57;101385.44;;;28.33;60.44
23419;BME280;11882;42.522;27.458;2022-09-09T10:03:26;101386.28;;;28.29;61.12
23419;BME280;11882;42.522;27.458;2022-09-09T10:05:54;101386.00;;;28.25;62.31
23419;BME280;11882;42.522;27.458;2022-09-09T10:08:22;101387.91;;;28.30;62.29
23419;BME280;11882;42.522;27.458;2022-09-09T10:10:58;101381.59;;;28.34;62.61
23419;BME280;11882;42.522;27.458;2022-09-09T10:13:37;101385.94;;;28.45;63.26
23419;BME280;11882;42.522;27.458;2022-09-09T10:16:18;101390.84;;;28.48;62.22
23419;BME280;11882;42.522;27.458;2022-09-09T10:18:58;101379.16;;;28.28;62.03
23419;BME280;11882;42.522;27.458;2022-09-09T10:27:11;101373.19;;;28.00;63.97
23419;BME280;11882;42.522;27.458;2022-09-09T10:30:00;101363.59;;;28.08;64.42
23419;BME280;11882;42.522;27.458;2022-09-09T10:32:38;101371.53;;;28.09;64.49
23419;BME280;11882;42.522;27.458;2022-09-09T10:35:14;101367.44;;;28.07;63.80
23419;BME280;11882;42.522;27.458;2022-09-09T10:40:58;101363.59;;;28.08;65.08
23419;BME280;11882;42.522;27.458;2022-09-09T10:43:38;101380.59;;;27.95;64.49
23419;BME280;11882;42.522;27.458;2022-09-09T10:46:15;101373.25;;;27.80;65.71
23419;BME280;11882;42.522;27.458;2022-09-09T10:48:59;101371.63;;;27.74;65.59
23419;BME280;11882;42.522;27.458;2022-09-09T10:51:36;101365.59;;;27.41;67.06
23419;BME280;11882;42.522;27.458;2022-09-09T10:54:29;101373.53;;;27.53;66.62
23419;BME280;11882;42.522;27.458;2022-09-09T10:57:03;101380.63;;;27.54;66.60
23419;BME280;11882;42.522;27.458;2022-09-09T10:59:38;101368.63;;;27.60;67.49
23419;BME280;11882;42.522;27.458;2022-09-09T11:02:14;101369.97;;;27.73;67.34
23419;BME280;11882;42.522;27.458;2022-09-09T11:04:48;101369.94;;;27.83;66.30
23419;BME280;11882;42.522;27.458;2022-09-09T11:07:27;101371.34;;;27.75;66.29
23419;BME280;11882;42.522;27.458;2022-09-09T11:10:01;101373.25;;;27.59;65.62
23419;BME280;11882;42.522;27.458;2022-09-09T11:12:30;101356.31;;;27.42;66.05
23419;BME280;11882;42.522;27.458;2022-09-09T11:15:03;101361.22;;;27.30;66.80
23419;BME280;11882;42.522;27.458;2022-09-09T11:17:40;101361.22;;;27.25;66.71
23419;BME280;11882;42.522;27.458;2022-09-09T11:20:12;101350.56;;;27.08;67.72
23419;BME280;11882;42.522;27.458;2022-09-09T11:22:45;101340.72;;;27.02;68.20
23419;BME280;11882;42.522;27.458;2022-09-09T11:25:16;101333.34;;;27.03;68.39
23419;BME280;11882;42.522;27.458;2022-09-09T11:27:56;101323.50;;;27.02;68.08
23419;BME280;11882;42.522;27.458;2022-09-09T11:30:32;101319.91;;;26.81;68.70
23419;BME280;11882;42.522;27.458;2022-09-09T11:33:19;101315.81;;;26.78;69.45
23419;BME280;11882;42.522;27.458;2022-09-09T11:36:02;101320.19;;;26.79;69.37
23419;BME280;11882;42.522;27.458;2022-09-09T11:38:41;101320.97;;;26.70;68.80
23419;BME280;11882;42.522;27.458;2022-09-09T11:41:11;101326.69;;;26.63;69.02
23419;BME280;11882;42.522;27.458;2022-09-09T11:43:40;101313.84;;;26.58;69.26
23419;BME280;11882;42.522;27.458;2022-09-09T11:46:08;101308.09;;;26.45;68.77
23419;BME280;11882;42.522;27.458;2022-09-09T11:48:39;101300.16;;;26.38;68.62
23419;BME280;11882;42.522;27.458;2022-09-09T11:51:10;101298.53;;;26.37;69.50
23419;BME280;11882;42.522;27.458;2022-09-09T11:53:49;101307.50;;;26.32;69.89
23419;BME280;11882;42.522;27.458;2022-09-09T11:56:25;101293.31;;;26.36;70.95
23419;BME280;11882;42.522;27.458;2022-09-09T11:58:58;101290.63;;;26.41;70.59
23419;BME280;11882;42.522;27.458;2022-09-09T12:01:37;101293.59;;;26.34;69.71
23419;BME280;11882;42.522;27.458;2022-09-09T12:07:04;101289.78;;;26.35;69.21
23419;BME280;11882;42.522;27.458;2022-09-09T12:09:45;101286.50;;;26.38;70.55
23419;BME280;11882;42.522;27.458;2022-09-09T12:12:32;101282.13;;;26.32;70.07
23419;BME280;11882;42.522;27.458;2022-09-09T12:15:03;101273.34;;;26.30;70.49
23419;BME280;11882;42.522;27.458;2022-09-09T12:17:31;101278.25;;;26.28;71.59
23419;BME280;11882;42.522;27.458;2022-09-09T12:20:12;101272.50;;;26.19;71.31
23419;BME280;11882;42.522;27.458;2022-09-09T12:23:04;101279.88;;;26.24;71.17
23419;BME280;11882;42.522;27.458;2022-09-09T12:25:46;101267.88;;;26.20;71.12
23419;BME280;11882;42.522;27.458;2022-09-09T12:28:18;101264.31;;;26.14;70.05
23419;BME280;11882;42.522;27.458;2022-09-09T12:30:51;101252.56;;;26.09;70.60
23419;BME280;11882;42.522;27.458;2022-09-09T12:33:21;101263.47;;;26.09;70.83
23419;BME280;11882;42.522;27.458;2022-09-09T12:35:54;101252.56;;;26.14;71.61
23419;BME280;11882;42.522;27.458;2022-09-09T12:38:27;101252.59;;;26.19;72.36
23419;BME280;11882;42.522;27.458;2022-09-09T12:40:58;101252.56;;;26.14;71.93
23419;BME280;11882;42.522;27.458;2022-09-09T12:43:26;101243.84;;;26.12;72.47
23419;BME280;11882;42.522;27.458;2022-09-09T12:45:57;101253.94;;;26.16;71.89
23419;BME280;11882;42.522;27.458;2022-09-09T12:48:33;101244.09;;;26.10;71.34
23419;BME280;11882;42.522;27.458;2022-09-09T12:51:18;101247.38;;;26.12;71.84
23419;BME280;11882;42.522;27.458;2022-09-09T12:53:46;101243.84;;;26.12;71.28
23419;BME280;11882;42.522;27.458;2022-09-09T12:56:19;101235.03;;;25.99;71.09
23419;BME280;11882;42.522;27.458;2022-09-09T12:58:48;101234.53;;;26.02;70.17
23419;BME280;11882;42.522;27.458;2022-09-09T13:01:20;101238.06;;;26.03;71.76
23419;BME280;11882;42.522;27.458;2022-09-09T13:03:48;101227.94;;;25.98;71.03
23419;BME280;11882;42.522;27.458;2022-09-09T13:06:21;101221.97;;;26.01;71.01
23419;BME280;11882;42.522;27.458;2022-09-09T13:08:49;101227.38;;;25.96;70.83
23419;BME280;11882;42.522;27.458;2022-09-09T13:11:18;101234.47;;;25.97;70.28
23419;BME280;11882;42.522;27.458;2022-09-09T13:13:51;101229.56;;;25.94;69.82
23419;BME280;11882;42.522;27.458;2022-09-09T13:16:21;101230.66;;;25.93;70.21